sensor_id;sensor_type;location;lat;lon;timestamp;P1;durP1;ratioP1;P2;durP2;ratioP2
62121;SDS011;48108;47.532;19.084;2022-09-09T04:05:57;3.10;;;2.85;;
62121;SDS011;48108;47.532;19.084;2022-09-09T04:09:10;4.05;;;2.67;;
62121;SDS011;48108;47.532;19.084;2022-09-09T04:12:16;2.80;;;2.60;;
62121;SDS011;48108;47.532;19.084;2022-09-09T04:15:20;2.83;;;2.60;;
62121;SDS011;48108;47.532;19.084;2022-09-09T04:18:23;2.67;;;2.47;;
62121;SDS011;48108;47.532;19.084;2022-09-09T04:21:27;2.87;;;2.50;;
62121;SDS011;48108;47.532;19.084;2022-09-09T04:24:29;3.17;;;2.50;;
62121;SDS011;48108;47.532;19.084;2022-09-09T04:27:33;2.92;;;2.72;;
62121;SDS011;48108;47.532;19.084;2022-09-09T04:30:35;3.50;;;3.08;;
62121;SDS011;48108;47.532;19.084;2022-09-09T04:33:39;2.70;;;2.50;;
62121;SDS011;48108;47.532;19.084;2022-09-09T04:36:42;2.78;;;2.58;;
62121;SDS011;48108;47.532;19.084;2022-09-09T04:39:45;3.20;;;2.90;;
62121;SDS011;48108;47.532;19.084;2022-09-09T04:42:48;2.92;;;2.60;;
62121;SDS011;48108;47.532;19.084;2022-09-09T04:49:58;2.90;;;2.70;;
62121;SDS011;48108;47.532;19.084;2022-09-09T04:53:02;2.60;;;2.40;;
62121;SDS011;48108;47.532;19.084;2022-09-09T04:56:08;2.50;;;2.30;;
62121;SDS011;48108;47.532;19.084;2022-09-09T05:03:23;2.92;;;2.33;;
62121;SDS011;48108;47.532;19.084;2022-09-09T05:06:26;2.53;;;2.33;;
62121;SDS011;48108;47.532;19.084;2022-09-09T05:13:35;4.60;;;2.75;;
62121;SDS011;48108;47.532;19.084;2022-09-09T05:16:46;3.28;;;2.97;;
62121;SDS011;48108;47.532;19.084;2022-09-09T05:19:49;3.12;;;2.83;;
62121;SDS011;48108;47.532;19.084;2022-09-09T05:26:55;2.92;;;2.67;;
62121;SDS011;48108;47.532;19.084;2022-09-09T05:30:01;3.03;;;2.83;;
62121;SDS011;48108;47.532;19.084;2022-09-09T05:33:04;2.62;;;2.42;;
62121;SDS011;48108;47.532;19.084;2022-09-09T05:36:09;2.62;;;2.42;;
62121;SDS011;48108;47.532;19.084;2022-09-09T05:39:16;2.58;;;2.37;;
62121;SDS011;48108;47.532;19.084;2022-09-09T05:42:25;3.00;;;2.70;;
62121;SDS011;48108;47.532;19.084;2022-09-09T05:45:33;2.67;;;2.47;;
62121;SDS011;48108;47.532;19.084;2022-09-09T05:48:37;3.35;;;2.50;;
62121;SDS011;48108;47.532;19.084;2022-09-09T05:55:14;2.62;;;2.42;;
62121;SDS011;48108;47.532;19.084;2022-09-09T05:58:19;2.60;;;2.40;;
62121;SDS011;48108;47.532;19.084;2022-09-09T06:01:24;3.00;;;2.80;;
62121;SDS011;48108;47.532;19.084;2022-09-09T06:04:33;3.47;;;2.72;;
62121;SDS011;48108;47.532;19.084;2022-09-09T06:07:36;2.65;;;2.30;;
62121;SDS011;48108;47.532;19.084;2022-09-09T06:14:47;2.33;;;2.12;;
62121;SDS011;48108;47.532;19.084;2022-09-09T06:21:52;3.37;;;2.28;;
62121;SDS011;48108;47.532;19.084;2022-09-09T06:37:16;2.00;;;1.90;;
62121;SDS011;48108;47.532;19.084;2022-09-09T06:40:20;2.15;;;1.60;;
62121;SDS011;48108;47.532;19.084;2022-09-09T06:43:22;2.20;;;1.60;;
62121;SDS011;48108;47.532;19.084;2022-09-09T06:46:27;3.03;;;1.40;;
62121;SDS011;48108;47.532;19.084;2022-09-09T06:49:34;1.12;;;1.12;;
62121;SDS011;48108;47.532;19.084;2022-09-09T06:52:38;1.40;;;1.30;;
62121;SDS011;48108;47.532;19.084;2022-09-09T06:55:47;1.70;;;1.25;;
62121;SDS011;48108;47.532;19.084;2022-09-09T06:59:12;2.72;;;1.60;;
62121;SDS011;48108;47.532;19.084;2022-09-09T07:10:16;1.58;;;1.48;;
62121;SDS011;48108;47.532;19.084;2022-09-09T07:32:53;2.12;;;1.90;;
62121;SDS011;48108;47.532;19.084;2022-09-09T07:36:03;3.03;;;1.80;;
62121;SDS011;48108;47.532;19.084;2022-09-09T07:43:03;1.60;;;1.50;;
62121;SDS011;48108;47.532;19.084;2022-09-09T07:46:06;2.37;;;1.50;;
62121;SDS011;48108;47.532;19.084;2022-09-09T07:49:11;1.75;;;1.58;;
62121;SDS011;48108;47.532;19.084;2022-09-09T07:52:16;1.70;;;1.60;;
62121;SDS011;48108;47.532;19.084;2022-09-09T08:03:31;1.50;;;1.40;;
62121;SDS011;48108;47.532;19.084;2022-09-09T08:09:51;5.72;;;1.80;;
62121;SDS011;48108;47.532;19.084;2022-09-09T08:12:57;2.10;;;1.85;;
62121;SDS011;48108;47.532;19.084;2022-09-09T08:16:26;1.80;;;1.67;;
62121;SDS011;48108;47.532;19.084;2022-09-09T08:27:45;1.60;;;1.40;;
62121;SDS011;48108;47.532;19.084;2022-09-09T08:30:50;1.37;;;1.30;;
62121;SDS011;48108;47.532;19.084;2022-09-09T08:33:56;1.15;;;1.05;;
62121;SDS011;48108;47.532;19.084;2022-09-09T08:37:07;2.05;;;1.35;;
62121;SDS011;48108;47.532;19.084;2022-09-09T08:56:45;1.62;;;1.30;;
62121;SDS011;48108;47.532;19.084;2022-09-09T08:59:49;2.00;;;1.10;;
62121;SDS011;48108;47.532;19.084;2022-09-09T09:03:06;1.12;;;1.00;;
62121;SDS011;48108;47.532;19.084;2022-09-09T09:13:02;0.82;;;0.82;;
62121;SDS011;48108;47.532;19.084;2022-09-09T09:19:44;1.05;;;1.05;;
62121;SDS011;48108;47.532;19.084;2022-09-09T09:22:51;1.92;;;1.45;;
62121;SDS011;48108;47.532;19.084;2022-09-09T09:25:58;2.10;;;1.00;;
62121;SDS011;48108;47.532;19.084;2022-09-09T09:29:13;1.77;;;0.98;;
62121;SDS011;48108;47.532;19.084;2022-09-09T09:32:19;1.08;;;1.08;;
62121;SDS011;48108;47.532;19.084;2022-09-09T09:35:23;1.70;;;1.10;;
62121;SDS011;48108;47.532;19.084;2022-09-09T09:38:27;1.55;;;1.20;;
62121;SDS011;48108;47.532;19.084;2022-09-09T09:41:52;0.80;;;0.77;;
62121;SDS011;48108;47.532;19.084;2022-09-09T09:49:02;1.23;;;0.98;;
62121;SDS011;48108;47.532;19.084;2022-09-09T09:56:27;0.95;;;0.90;;
62121;SDS011;48108;47.532;19.084;2022-09-09T10:03:28;0.90;;;0.90;;
62121;SDS011;48108;47.532;19.084;2022-09-09T10:06:36;1.00;;;1.00;;
62121;SDS011;48108;47.532;19.084;2022-09-09T10:09:40;0.88;;;0.88;;
62121;SDS011;48108;47.532;19.084;2022-09-09T13:15:01;0.60;;;0.52;;
62121;SDS011;48108;47.532;19.084;2022-09-09T13:19:14;0.43;;;0.40;;
62121;SDS011;48108;47.532;19.084;2022-09-09T13:44:25;1.20;;;0.73;;
62121;SDS011;48108;47.532;19.084;2022-09-09T13:47:34;1.00;;;0.75;;
62121;SDS011;48108;47.532;19.084;2022-09-09T13:50:38;0.75;;;0.70;;
62121;SDS011;48108;47.532;19.084;2022-09-09T13:53:41;0.50;;;0.50;;
62121;SDS011;48108;47.532;19.084;2022-09-09T13:56:44;0.50;;;0.50;;
62121;SDS011;48108;47.532;19.084;2022-09-09T13:59:47;0.70;;;0.50;;
62121;SDS011;48108;47.532;19.084;2022-09-09T14:03:08;0.60;;;0.60;;
62121;SDS011;48108;47.532;19.084;2022-09-09T14:06:17;0.55;;;0.55;;
62121;SDS011;48108;47.532;19.084;2022-09-09T14:09:21;0.73;;;0.73;;
62121;SDS011;48108;47.532;19.084;2022-09-09T14:12:24;0.50;;;0.50;;
62121;SDS011;48108;47.532;19.084;2022-09-09T14:22:23;1.62;;;0.90;;
62121;SDS011;48108;47.532;19.084;2022-09-09T14:25:26;2.78;;;0.75;;
62121;SDS011;48108;47.532;19.084;2022-09-09T14:28:29;0.70;;;0.70;;
62121;SDS011;48108;47.532;19.084;2022-09-09T14:31:55;2.12;;;0.70;;
62121;SDS011;48108;47.532;19.084;2022-09-09T14:34:58;0.77;;;0.77;;
62121;SDS011;48108;47.532;19.084;2022-09-09T14:53:25;0.65;;;0.62;;
62121;SDS011;48108;47.532;19.084;2022-09-09T15:04:41;1.08;;;0.62;;
62121;SDS011;48108;47.532;19.084;2022-09-09T15:07:46;1.23;;;0.70;;
62121;SDS011;48108;47.532;19.084;2022-09-09T15:14:56;1.30;;;0.80;;
62121;SDS011;48108;47.532;19.084;2022-09-09T15:22:19;0.70;;;0.70;;
62121;SDS011;48108;47.532;19.084;2022-09-09T15:29:23;0.82;;;0.82;;
62121;SDS011;48108;47.532;19.084;2022-09-09T15:32:27;1.75;;;0.50;;
62121;SDS011;48108;47.532;19.084;2022-09-09T15:35:30;0.50;;;0.50;;
62121;SDS011;48108;47.532;19.084;2022-09-09T15:42:35;2.50;;;0.70;;
62121;SDS011;48108;47.532;19.084;2022-09-09T15:53:11;1.52;;;1.00;;
62121;SDS011;48108;47.532;19.084;2022-09-09T15:56:13;0.90;;;0.90;;
62121;SDS011;48108;47.532;19.084;2022-09-09T15:59:19;1.87;;;0.80;;
